Norrland — C4KF2 — position and weather

sailwx.info

Track history (hours):
 
Tides and Currents Weather Stations Pressure Air Temp Water Temp Dewpoint Dewpoint Depression Visibility Wind Speed Wind Dir Waves Ship Positions

Norrland

Last reported at 2016-Aug-20 06:33 UTC. Time now 2016-Aug-25 18:27 UTC.
Position N 59°35' E 021°22'.

Length 118 m; draft 7.1 m.

Type: Cargo ship. MMSI: 212521000.

Date/timePositionNaut miles runAvg speedWind from/ knotsBaromVisibWave heightAir tempDewpointWater temp
2016-Aug-20 06:33N 59°35' E 021°22'1010.1
2016-Aug-20 05:33N 59°35' E 021°42'1010.1
2016-Aug-20 04:33N 59°35' E 022°02'4010.1
2016-Aug-20 00:33N 59°40' E 023°21'1010.5
2016-Aug-19 23:33N 59°43' E 023°41'1010.4
2016-Aug-19 22:33N 59°45' E 024°01'1310.3
2016-Aug-19 21:17N 59°48' E 024°27'710.3
2016-Aug-19 20:33N 59°49' E 024°42'59 2.0
2016-Aug-18 14:33N 59°32' E 026°33'50 3.5
2016-Aug-18 00:09N 59°45' E 024°58'6 9.9
2016-Aug-17 23:33N 59°46' E 024°46'1010.0
2016-Aug-17 22:33N 59°44' E 024°27'20 9.8
2016-Aug-17 20:29N 59°37' E 023°49'9 9.8
2016-Aug-17 19:33N 59°34' E 023°32'10 9.1
2016-Aug-17 18:27N 59°31' E 023°13'249 9.3
2016-Aug-16 15:34N 57°12' E 016°39'7 0.2
2016-Aug-15 04:14N 57°06' E 016°33'4 5.8
2016-Aug-15 03:33N 57°10' E 016°35'5 5.1
2016-Aug-15 02:32N 57°15' E 016°39'0 0.0
2016-Aug-15 01:32N 57°15' E 016°39'0 0.0
2016-Aug-15 00:32N 57°15' E 016°39'0 0.0
2016-Aug-14 23:32N 57°15' E 016°39'0 0.0
2016-Aug-14 22:32N 57°15' E 016°39'1 0.8
2016-Aug-14 21:33N 57°15' E 016°40'  
Track history (hours):
 
Tides and Currents Weather Stations Pressure Air Temp Water Temp Dewpoint Dewpoint Depression Visibility Wind Speed Wind Dir Waves Ship Positions

Norrland

Last reported at 2016-Aug-20 06:33 UTC. Time now 2016-Aug-25 18:27 UTC.
Position N 59°35' E 021°22'.

Length 118 m; draft 7.1 m.

Type: Cargo ship. MMSI: 212521000.

Date/timePositionNaut miles runAvg speedWind from/ knotsBaromVisibWave heightAir tempDewpointWater temp
2016-Aug-20 06:33N 59°35' E 021°22'1010.1
2016-Aug-20 05:33N 59°35' E 021°42'1010.1
2016-Aug-20 04:33N 59°35' E 022°02'4010.1
2016-Aug-20 00:33N 59°40' E 023°21'1010.5
2016-Aug-19 23:33N 59°43' E 023°41'1010.4
2016-Aug-19 22:33N 59°45' E 024°01'1310.3
2016-Aug-19 21:17N 59°48' E 024°27'710.3
2016-Aug-19 20:33N 59°49' E 024°42'59 2.0
2016-Aug-18 14:33N 59°32' E 026°33'50 3.5
2016-Aug-18 00:09N 59°45' E 024°58'6 9.9
2016-Aug-17 23:33N 59°46' E 024°46'1010.0
2016-Aug-17 22:33N 59°44' E 024°27'20 9.8
2016-Aug-17 20:29N 59°37' E 023°49'9 9.8
2016-Aug-17 19:33N 59°34' E 023°32'10 9.1
2016-Aug-17 18:27N 59°31' E 023°13'249 9.3
2016-Aug-16 15:34N 57°12' E 016°39'7 0.2
2016-Aug-15 04:14N 57°06' E 016°33'4 5.8
2016-Aug-15 03:33N 57°10' E 016°35'5 5.1
2016-Aug-15 02:32N 57°15' E 016°39'0 0.0
2016-Aug-15 01:32N 57°15' E 016°39'0 0.0
2016-Aug-15 00:32N 57°15' E 016°39'0 0.0
2016-Aug-14 23:32N 57°15' E 016°39'0 0.0
2016-Aug-14 22:32N 57°15' E 016°39'1 0.8
2016-Aug-14 21:33N 57°15' E 016°40'  

Dump ship's entire track history